CheckWX is a tool to help pilots better visualize weather data.  It is not intended as a substitute for an official pre-flight weather briefing.

16:36:55 UTC

KBUR METAR
Bob Hope Airport
Burbank, California, USA
Current

44 mins ago

KBUR 231553Z 00000KT 10SM CLR 11/04 A3015 RMK AO2 SLP201 T01060044
Observed
Jan-23 @ 15:53 UTC
Visibility
10 SM
Flight Rules
VFR
Cloud Levels
  • Clear skies
Temperature
11°C / 52°F
Dewpoint
C / 39°F
Humidity
62%
Altimeter
30.15" Hg
Pressure
1021.02 hPa
Previous

2 hours ago

KBUR 231453Z 01004KT 10SM CLR 08/04 A3013 RMK AO2 SLP199 T00780044 53003
Observed
Jan-23 @ 14:53 UTC
Wind
  • 010° at 4 KTS
Visibility
10 SM
Flight Rules
VFR
Cloud Levels
  • Clear skies
Temperature
C / 46°F
Dewpoint
C / 39°F
Humidity
76%
Altimeter
30.13" Hg
Pressure
1020.32 hPa
Previous

3 hours ago

KBUR 231353Z 31003KT 10SM CLR 07/04 A3012 RMK AO2 SLP194 T00720039
Observed
Jan-23 @ 13:53 UTC
Wind
  • 310° at 3 KTS
Visibility
10 SM
Flight Rules
VFR
Cloud Levels
  • Clear skies
Temperature
C / 45°F
Dewpoint
C / 39°F
Humidity
81%
Altimeter
30.12" Hg
Pressure
1020.02 hPa